createdAt,value
2018-12-12T00:01:56.869Z,2.93
2018-12-12T00:07:06.011Z,3.08
2018-12-12T00:12:15.556Z,2.82
2018-12-12T00:17:24.824Z,2.89
2018-12-12T00:22:34.317Z,3.02
2018-12-12T00:27:43.667Z,2.93
2018-12-12T00:32:53.129Z,2.80
2018-12-12T00:38:02.262Z,2.57
2018-12-12T00:43:11.630Z,2.67
2018-12-12T00:48:20.874Z,2.62
2018-12-12T00:53:30.477Z,2.74
2018-12-12T00:58:38.220Z,2.44
2018-12-12T01:03:47.882Z,2.58
2018-12-12T01:08:57.000Z,2.79
2018-12-12T01:14:06.941Z,2.75
2018-12-12T01:19:16.302Z,2.45
2018-12-12T01:24:25.933Z,2.68
2018-12-12T01:29:35.044Z,2.19
2018-12-12T01:34:44.458Z,2.72
2018-12-12T01:39:53.732Z,2.61
2018-12-12T01:45:03.129Z,2.58
2018-12-12T01:50:12.398Z,2.42
2018-12-12T01:55:22.154Z,2.47
2018-12-12T02:00:29.852Z,2.52
2018-12-12T02:05:39.267Z,2.29
2018-12-12T02:10:48.449Z,2.06
2018-12-12T02:15:58.077Z,2.09
2018-12-12T02:21:07.230Z,2.01
2018-12-12T02:26:16.829Z,2.37
2018-12-12T02:31:25.970Z,2.17
2018-12-12T02:36:34.008Z,2.30
2018-12-12T02:41:43.136Z,2.21
2018-12-12T02:46:52.575Z,2.25
2018-12-12T02:52:01.813Z,2.03
2018-12-12T02:57:11.486Z,2.41
2018-12-12T03:02:20.643Z,2.00
2018-12-12T03:07:30.066Z,1.98
2018-12-12T03:12:39.202Z,1.94
2018-12-12T03:17:48.838Z,1.89
2018-12-12T03:22:56.695Z,1.89
2018-12-12T03:28:06.068Z,1.77
2018-12-12T03:33:13.845Z,2.28
2018-12-12T03:38:23.351Z,1.79
2018-12-12T03:43:32.516Z,1.87
2018-12-12T03:48:42.052Z,1.81
2018-12-12T03:53:51.322Z,1.90
2018-12-12T03:59:01.118Z,1.89
2018-12-12T04:04:08.787Z,1.90
2018-12-12T04:09:18.187Z,1.94
2018-12-12T04:14:27.500Z,1.79
2018-12-12T04:19:36.980Z,1.89
2018-12-12T04:24:44.673Z,1.93
2018-12-12T04:29:52.789Z,1.84
2018-12-12T04:35:02.068Z,1.75
2018-12-12T04:40:11.521Z,1.76
2018-12-12T04:45:20.727Z,2.10
2018-12-12T04:50:30.224Z,1.84
2018-12-12T04:55:39.365Z,1.72
2018-12-12T05:00:49.075Z,1.74
2018-12-12T05:05:58.230Z,1.59
2018-12-12T05:11:07.669Z,1.79
2018-12-12T05:16:16.843Z,1.60
2018-12-12T05:21:26.353Z,1.66
2018-12-12T05:26:35.624Z,1.67
2018-12-12T05:31:45.181Z,1.67
2018-12-12T05:36:54.372Z,1.54
2018-12-12T05:42:03.779Z,1.98
2018-12-12T05:47:12.989Z,2.17
2018-12-12T05:52:22.607Z,2.56
2018-12-12T05:57:30.293Z,2.74
2018-12-12T06:02:39.809Z,2.22
2018-12-12T06:07:49.080Z,2.57
2018-12-12T06:12:58.493Z,2.54
2018-12-12T06:18:06.206Z,2.84
2018-12-12T06:23:15.848Z,2.40
2018-12-12T06:28:25.142Z,2.67
2018-12-12T06:33:34.641Z,2.63
2018-12-12T06:38:43.817Z,2.55
2018-12-12T06:43:53.072Z,2.27
2018-12-12T06:49:00.844Z,2.28
2018-12-12T06:54:10.454Z,2.23
2018-12-12T06:59:19.664Z,2.03
2018-12-12T07:04:29.510Z,2.22
2018-12-12T07:09:38.856Z,2.42
2018-12-12T07:14:48.304Z,2.25
2018-12-12T07:19:57.545Z,1.98
2018-12-12T07:25:07.203Z,2.26
2018-12-12T07:30:16.525Z,2.23
2018-12-12T07:35:25.872Z,1.95
2018-12-12T07:40:35.078Z,2.39
2018-12-12T07:45:44.718Z,2.49
2018-12-12T07:50:52.502Z,2.18
2018-12-12T07:56:01.902Z,2.04
2018-12-12T08:01:11.145Z,4.11
2018-12-12T08:06:20.655Z,3.51
2018-12-12T08:11:29.781Z,3.44
2018-12-12T08:16:39.318Z,3.41
2018-12-12T08:21:48.489Z,3.67
2018-12-12T08:27:02.310Z,3.92
2018-12-12T08:32:01.477Z,3.41
2018-12-12T08:37:10.833Z,3.43
2018-12-12T08:42:20.160Z,3.12
2018-12-12T08:47:31.196Z,3.31
2018-12-12T08:52:30.325Z,3.63
2018-12-12T08:57:39.713Z,5.02
2018-12-12T09:02:47.500Z,4.41
2018-12-12T09:07:57.089Z,4.93
2018-12-12T09:13:06.241Z,4.99
2018-12-12T09:18:15.668Z,4.40
2018-12-12T09:23:24.975Z,4.82
2018-12-12T09:28:34.551Z,4.49
2018-12-12T09:33:43.684Z,10.44
2018-12-12T09:38:52.974Z,7.84
2018-12-12T09:44:02.333Z,7.28
2018-12-12T09:49:12.049Z,7.01
2018-12-12T09:54:21.298Z,6.56
2018-12-12T09:59:30.790Z,6.24
2018-12-12T10:04:40.009Z,6.63
2018-12-12T10:09:49.511Z,6.54
2018-12-12T10:14:58.739Z,6.16
2018-12-12T10:20:08.520Z,6.86
2018-12-12T10:25:17.698Z,6.48
2018-12-12T10:30:27.390Z,5.71
2018-12-12T10:35:36.517Z,5.83
2018-12-12T10:40:45.813Z,5.95
2018-12-12T10:45:53.647Z,5.60
2018-12-12T10:51:02.981Z,5.75
2018-12-12T10:56:12.225Z,5.39
2018-12-12T11:01:21.753Z,5.42
2018-12-12T11:06:31.029Z,5.38
2018-12-12T11:11:40.992Z,5.13
2018-12-12T11:16:50.206Z,5.46
2018-12-12T11:21:58.481Z,5.47
2018-12-12T11:27:07.606Z,6.00
2018-12-12T11:28:23.101Z,6.78
2018-12-12T11:33:32.696Z,6.72
2018-12-12T11:38:41.842Z,7.35
2018-12-12T11:43:51.241Z,7.50
2018-12-12T11:49:00.563Z,7.75
2018-12-12T11:54:09.905Z,7.78
2018-12-12T11:59:19.133Z,8.16
2018-12-12T12:04:27.355Z,8.24
2018-12-12T12:09:36.626Z,8.12
2018-12-12T12:14:46.429Z,8.29
2018-12-12T12:19:55.639Z,8.63
2018-12-12T12:25:05.087Z,8.16
2018-12-12T12:30:14.361Z,8.43
2018-12-12T12:35:24.157Z,8.22
2018-12-12T12:40:33.304Z,8.40
2018-12-12T12:45:42.897Z,8.36
2018-12-12T12:50:52.218Z,7.68
2018-12-12T12:56:01.551Z,7.54
2018-12-12T13:01:10.813Z,7.41
2018-12-12T13:06:20.312Z,7.49
2018-12-12T13:11:29.527Z,7.59
2018-12-12T13:16:39.134Z,7.49
2018-12-12T13:21:48.454Z,7.31
2018-12-12T13:26:58.007Z,6.89
2018-12-12T13:32:07.245Z,6.85
2018-12-12T13:37:17.008Z,6.85
2018-12-12T13:42:26.276Z,6.75
2018-12-12T13:47:35.771Z,6.82
2018-12-12T13:52:44.921Z,6.76
2018-12-12T13:57:54.354Z,6.67
2018-12-12T14:03:03.676Z,6.30
2018-12-12T14:08:13.182Z,6.17
2018-12-12T14:13:22.492Z,6.12
2018-12-12T14:18:32.092Z,5.85
2018-12-12T14:23:41.264Z,6.14
2018-12-12T14:28:50.982Z,5.93
2018-12-12T14:34:00.147Z,5.91
2018-12-12T14:39:09.884Z,5.48
2018-12-12T14:44:19.011Z,5.85
2018-12-12T14:49:28.549Z,5.81
2018-12-12T14:54:38.030Z,5.63
2018-12-12T14:59:47.316Z,5.40
2018-12-12T15:04:55.071Z,5.29
2018-12-12T15:10:04.565Z,5.51
2018-12-12T15:15:13.708Z,5.63
2018-12-12T15:20:23.730Z,5.36
2018-12-12T15:25:22.986Z,5.71
2018-12-12T15:30:32.397Z,5.00
2018-12-12T15:35:41.552Z,5.36
2018-12-12T15:40:51.414Z,5.71
2018-12-12T15:46:00.558Z,5.65
2018-12-12T15:51:10.000Z,5.32
2018-12-12T15:56:19.179Z,5.25
2018-12-12T16:01:29.035Z,5.53
2018-12-12T16:06:38.261Z,5.48
2018-12-12T16:11:47.868Z,5.74
2018-12-12T16:16:57.032Z,5.47
2018-12-12T16:22:06.682Z,5.39
2018-12-12T16:27:15.821Z,5.73
2018-12-12T16:32:25.836Z,5.38
2018-12-12T16:37:35.082Z,5.81
2018-12-12T16:42:44.491Z,5.30
2018-12-12T16:47:53.702Z,5.83
2018-12-12T16:53:03.234Z,5.83
2018-12-12T16:58:12.540Z,6.02
2018-12-12T17:03:21.894Z,5.80
2018-12-12T17:08:31.178Z,5.60
2018-12-12T17:13:40.465Z,5.91
2018-12-12T17:18:49.666Z,5.72
2018-12-12T17:23:59.359Z,6.31
2018-12-12T17:29:08.501Z,6.65
2018-12-12T17:34:17.906Z,6.61
2018-12-12T17:39:27.124Z,6.77
2018-12-12T17:44:36.764Z,6.98
2018-12-12T17:49:45.990Z,7.02
2018-12-12T17:54:55.781Z,6.87
2018-12-12T18:00:05.066Z,6.65
2018-12-12T18:05:15.400Z,6.89
2018-12-12T18:10:23.350Z,6.73
2018-12-12T18:15:32.884Z,7.05
2018-12-12T18:20:42.069Z,7.59
2018-12-12T18:25:51.467Z,7.25
2018-12-12T18:30:59.250Z,7.24
2018-12-12T18:36:08.889Z,42.26
2018-12-12T18:41:16.627Z,45.88
2018-12-12T18:46:26.647Z,37.27
2018-12-12T18:51:25.703Z,33.67
2018-12-12T18:56:35.218Z,31.26
2018-12-12T19:01:44.351Z,28.90
2018-12-12T19:06:53.759Z,27.44
2018-12-12T19:12:05.977Z,26.27
2018-12-12T19:17:05.205Z,26.35
2018-12-12T19:22:14.400Z,25.36
2018-12-12T19:27:23.789Z,23.92
2018-12-12T19:32:33.906Z,23.90
2018-12-12T19:37:35.480Z,22.92
2018-12-12T19:42:34.569Z,23.12
2018-12-12T19:47:44.210Z,23.05
2018-12-12T19:52:53.449Z,22.73
2018-12-12T19:58:03.153Z,21.89
2018-12-12T20:03:12.276Z,21.41
2018-12-12T20:08:21.737Z,21.05
2018-12-12T20:13:35.491Z,20.67
2018-12-12T20:18:34.923Z,21.00
2018-12-12T20:23:44.216Z,20.74
2018-12-12T20:28:53.946Z,20.05
2018-12-12T20:34:03.179Z,20.01
2018-12-12T20:39:12.857Z,19.09
2018-12-12T20:44:22.011Z,18.65
2018-12-12T20:49:31.833Z,18.28
2018-12-12T20:54:41.099Z,18.22
2018-12-12T20:59:50.774Z,18.62
2018-12-12T21:05:00.025Z,18.24
2018-12-12T21:10:09.675Z,18.41
2018-12-12T21:15:18.807Z,17.93
2018-12-12T21:20:28.195Z,18.18
2018-12-12T21:25:37.366Z,18.06
2018-12-12T21:30:46.683Z,18.31
2018-12-12T21:36:00.716Z,17.84
2018-12-12T21:41:03.416Z,17.68
2018-12-12T21:46:11.110Z,18.23
2018-12-12T21:51:20.639Z,17.53
2018-12-12T21:56:29.913Z,17.79
2018-12-12T22:01:39.901Z,18.05
2018-12-12T22:06:49.209Z,17.33
2018-12-12T22:11:58.734Z,17.59
2018-12-12T22:17:07.848Z,17.41
2018-12-12T22:22:17.261Z,16.48
2018-12-12T22:27:26.562Z,16.54
2018-12-12T22:32:36.204Z,17.19
2018-12-12T22:37:45.394Z,16.29
2018-12-12T22:42:55.006Z,16.52
2018-12-12T22:48:04.272Z,16.92
2018-12-12T22:53:13.713Z,16.44
2018-12-12T22:58:21.501Z,16.15
2018-12-12T23:03:31.445Z,15.56
2018-12-12T23:08:40.646Z,16.22
2018-12-12T23:13:50.432Z,16.33
2018-12-12T23:18:59.556Z,15.39
2018-12-12T23:24:09.205Z,15.40
2018-12-12T23:29:18.498Z,15.76
2018-12-12T23:34:27.891Z,15.75
2018-12-12T23:39:37.187Z,15.43
2018-12-12T23:44:46.549Z,16.12
2018-12-12T23:49:55.686Z,16.21
2018-12-12T23:55:03.993Z,15.20
